KCCO

Newnan Coweta County Airport

Atlanta, Georgia, USA
METAR KCCO 230835Z AUTO 00000KT 10SM OVC003 21/20 A3004 RMK AO2 T02130200
Observed Flight Rules
May-23 @ 08:35 UTC (8 minutes ago) Instrument Flight Rules
Visibility Clouds
10 miles
  • Overcast at 300' AGL
Temperatures Readings
Current 21°C / 70°F
Dewpoint 20°C / 68°F
Humidity 94%
Altimeter 30.04" Hg
Pressure 1017 hPa
Elevation 296
METAR KCCO 230835Z AUTO 00000KT 10SM OVC003 21/20 A3004 RMK AO2 T02130200
Observed Flight Rules
May-23 @ 08:35 UTC
(8 minutes ago)
LIFR
Clouds
  • Overcast at 300' AGL
Temperature Dewpoint
21°C / 70°F 20°C / 68°F
Humidity Altimeter Pressure
94% 30.04" Hg 1017 hPa